• Join FlightAware (Why Join?)
  • Login
  • US Flag 
01:59PM EST


 

Airport Tracker/Info


-or-


 

Live Flight TrackerFlight Track Log ✈ N16112 ✈ 24-Apr-2013 ✈ KTUS - KIAH

Flight Track Log - Related Links

Times and Time Zones

All times are in EDT time to prevent confusion due to time zone crossing. See the N16112 flight status page for this flight to view local times or setup timezone preferences in your user account.

Time Position Orientation Groundspeed Altitude Reporting Facility
EDT Latitude Longitude Course Direction KTS MPH feet Rate Location/Type
04:13PM 32.1233 -110.9494 77° East 175 201 3,100  Level Albuquerque Center
04:14PM 32.1461 -110.9786 313° West 192 221 4,100 1,920 Climbing Albuquerque Center
04:15PM 32.1844 -111.0211 317° Northwest 222 255 6,100 2,100 Climbing Albuquerque Center
04:16PM 32.2361 -110.9739 38° Northeast 280 322 8,500 2,100 Climbing Albuquerque Center
04:17PM 31.8868 -110.4693 74° East  Level FlightAware Approximate
04:17PM 32.2450 -110.9039 81° East 281 323 10,200  Level Albuquerque Center
04:17PM 32.2494 -110.8906 68° East 268 308 10,500 1,260 Climbing Albuquerque Center
04:18PM 31.9073 -110.3305 77° East  Level FlightAware Approximate
04:18PM 32.2769 -110.7914 72° East 305 351 11,900  Level Albuquerque Center
04:19PM 31.9350 -110.1921 77° East  Level FlightAware Approximate
04:19PM 32.3067 -110.6772 73° East 351 404 13,000  Level Albuquerque Center
04:20PM 32.3289 -110.5286 80° East 387 445 14,800 1,560 Climbing Albuquerque Center
04:21PM 32.3250 -110.3981 92° East 399 459 16,300 1,440 Climbing Albuquerque Center
04:22PM 32.3186 -110.2650 93° East 403 464 17,800 1,380 Climbing Albuquerque Center
04:23PM 32.3119 -110.1317 93° East 406 467 19,200 1,380 Climbing Albuquerque Center
04:24PM 32.3044 -109.9944 94° East 427 491 20,700 1,380 Climbing Albuquerque Center
04:25PM 32.2961 -109.8242 93° East 439 505 22,100 1,140 Climbing Albuquerque Center
04:26PM 32.2897 -109.6803 93° East 442 509 23,100 960 Climbing Albuquerque Center
04:27PM 32.2828 -109.5356 93° East 443 510 24,100 960 Climbing Albuquerque Center
04:28PM 32.2628 -109.3897 99° East 450 518 25,100 900 Climbing Albuquerque Center
04:29PM 32.2389 -109.2144 99° East 455 524 26,000 780 Climbing Albuquerque Center
04:30PM 32.2197 -109.0653 99° East 461 531 26,800 840 Climbing Albuquerque Center
04:31PM 32.1989 -108.9186 99° East 461 531 27,800 960 Climbing Albuquerque Center
04:32PM 32.1803 -108.7725 99° East 458 527 28,800 1,020 Climbing Albuquerque Center
04:33PM 32.1558 -108.5975 99° East 457 526 30,000 960 Climbing Albuquerque Center
04:34PM 32.1347 -108.4503 100° East 459 528 30,900 480 Climbing Albuquerque Center
04:35PM 32.1150 -108.2997 99° East 466 536 31,000 480 Climbing Albuquerque Center
04:36PM 32.0900 -108.1289 100° East 481 554 31,900 900 Climbing Albuquerque Center
04:37PM 32.0683 -107.9731 99° East 485 558 32,900 960 Climbing Albuquerque Center
04:39PM 32.0467 -107.8200 99° East 479 551 33,900 960 Climbing Albuquerque Center
04:40PM 32.0253 -107.6708 100° East 470 541 34,900 600 Climbing Albuquerque Center
04:41PM 31.9989 -107.4889 100° East 472 543 35,200 600 Climbing Albuquerque Center
04:42PM 31.9772 -107.3361 99° East 476 548 36,200 840 Climbing Albuquerque Center
04:43PM 31.9550 -107.1856 100° East 474 545 37,000 360 Climbing Albuquerque Center
04:44PM 31.9333 -107.0369 100° East 467 537 37,000  Level Albuquerque Center
04:45PM 31.9103 -106.8819 100° East 475 547 37,000  Level Albuquerque Center
04:46PM 31.8797 -106.6917 101° East 493 567 37,000  Level Albuquerque Center
04:47PM 31.8536 -106.5283 101° East 503 579 37,000  Level Albuquerque Center
04:48PM 31.8303 -106.3633 99° East 510 587 37,000  Level Albuquerque Center
04:49PM 31.7994 -106.2011 103° East 512 589 37,000  Level Albuquerque Center
04:50PM 31.7575 -106.0469 108° East 499 574 37,000  Level Albuquerque Center
04:51PM 31.7175 -105.8897 107° East 501 577 37,000  Level Albuquerque Center
04:52PM 31.6786 -105.7319 106° East 505 581 37,000  Level Albuquerque Center
04:53PM 31.6306 -105.5436 107° East 501 577 37,000  Level Albuquerque Center
04:54PM 31.5914 -105.3853 106° East 503 579 37,000  Level Albuquerque Center
04:55PM 31.5517 -105.2289 107° East 500 575 37,000  Level Albuquerque Center
04:56PM 31.5111 -105.0706 107° East 504 580 37,000  Level Albuquerque Center
04:57PM 31.4706 -104.9133 107° East 502 578 37,000  Level Albuquerque Center
04:58PM 31.4306 -104.7547 106° East 504 580 37,000  Level Albuquerque Center
04:59PM 31.3889 -104.5983 107° East 503 579 37,000  Level Albuquerque Center
05:00PM 31.3403 -104.4103 107° East 502 578 37,000  Level Albuquerque Center
05:01PM 31.3003 -104.2542 107° East 501 577 37,000  Level Albuquerque Center
05:02PM 31.2583 -104.0978 107° East 503 579 37,000  Level Albuquerque Center
05:03PM 31.2175 -103.9425 107° East 502 578 37,000  Level Albuquerque Center
05:04PM 31.1739 -103.7881 108° East 501 577 37,000  Level Albuquerque Center
05:05PM 31.1303 -103.6286 108° East 500 575 37,000  Level Albuquerque Center
05:06PM 31.0875 -103.4753 108° East 500 575 37,000  Level Albuquerque Center
05:07PM 31.0372 -103.2914 108° East 499 574 37,000  Level Albuquerque Center
05:08PM 30.9953 -103.1394 108° East 498 573 37,000  Level Albuquerque Center
05:10PM 30.9556 -102.9889 107° East 491 565 37,000  Level Albuquerque Center
05:11PM 30.9142 -102.8356 107° East 496 571 37,000  Level Albuquerque Center
05:12PM 30.8750 -102.6822 107° East 498 573 37,000  Level Albuquerque Center
05:13PM 30.8269 -102.4983 107° East 499 574 37,000  Level Albuquerque Center
05:14PM 30.7867 -102.3444 107° East 501 577 37,000  Level Albuquerque Center
05:15PM 30.7467 -102.1922 107° East 499 574 37,000  Level Albuquerque Center
05:16PM 30.7061 -102.0397 107° East 499 574 37,000  Level Albuquerque Center
05:17PM 30.6658 -101.8856 107° East 500 575 37,000  Level Albuquerque Center
05:18PM 30.5994 -101.6408 107° East 498 573 37,000 -60 Level Houston Center
05:19PM 30.5542 -101.4689 107° East 498 573 36,900  Descending Houston Center
05:20PM 30.5128 -101.3158 107° East 499 574 37,000  Climbing Houston Center
05:21PM 30.4717 -101.1633 107° East 497 572 37,000  Level Houston Center
05:22PM 30.4294 -101.0092 108° East 501 577 37,000  Level Houston Center
05:23PM 30.3867 -100.8575 108° East 496 571 37,000  Level Houston Center
05:24PM 30.3447 -100.7036 107° East 500 575 37,000  Level Houston Center
05:26PM 30.2942 -100.5189 108° East 500 575 37,000  Level Houston Center
05:27PM 30.2511 -100.3642 108° East 502 578 37,000  Level Houston Center
05:28PM 30.2086 -100.2058 107° East 505 581 37,000  Level Houston Center
05:29PM 30.1633 -100.0489 108° East 507 583 37,000  Level Houston Center
05:30PM 30.1186 -99.8942 108° East 504 580 37,000  Level Houston Center
05:31PM 30.0742 -99.7397 108° East 505 581 37,000  Level Houston Center
05:32PM 30.0289 -99.5858 109° East 506 582 37,000  Level Houston Center
05:33PM 29.9850 -99.4317 108° East 506 582 37,000  Level Houston Center
05:34PM 29.9333 -99.2472 108° East 504 580 37,000  Level Houston Center
05:35PM 29.8800 -99.0967 112° Southeast 506 582 37,000  Level Houston Center
05:36PM 29.8211 -98.9358 113° Southeast 502 578 37,000  Level Houston Center
05:37PM 29.7653 -98.7858 113° Southeast 509 586 37,000  Level Houston Center
05:38PM 29.7050 -98.6253 113° Southeast 508 585 37,000  Level Houston Center
05:39PM 29.6553 -98.4781 111° Southeast 517 595 37,000  Level Houston Center
05:40PM 29.6472 -98.3008 93° East 527 606 37,000  Level Houston Center
05:41PM 29.6492 -98.1194 89° East 527 606 37,000  Level Houston Center
05:42PM 29.6517 -97.9514 89° East 527 606 37,000  Level Houston Center
05:43PM 29.6469 -97.8053 92° East 524 603 37,000 -960 Level Houston Center
05:44PM 29.6356 -97.6067 94° East 520 598 35,100 -2,040 Descending Houston Center
05:45PM 29.6258 -97.4456 94° East 508 585 32,800 -2,400 Descending Houston Center
05:46PM 29.6167 -97.2875 94° East 496 571 30,200 -2,580 Descending Houston Center
05:47PM 29.6075 -97.1328 94° East 488 562 27,500 -2,640 Descending Houston Center
05:48PM 29.5978 -96.9769 94° East 485 558 24,800 -2,580 Descending Houston Center
05:49PM 29.5883 -96.8211 94° East 482 555 22,200 -2,460 Descending Houston Center
05:50PM 29.5781 -96.6681 94° East 477 549 19,800 -2,280 Descending Houston Center
05:51PM 29.5694 -96.5289 94° East 438 504 17,500 -2,580 Descending Houston Center
05:52PM 29.5589 -96.3739 94° East 435 501 14,800 -2,520 Descending Houston Center
05:53PM 29.5492 -96.2575 95° East 389 448 12,900 -1,560 Descending Houston Center
05:54PM 29.5553 -96.1561 86° East 336 387 12,000 -900 Descending Houston Center
05:55PM 29.5644 -96.1306 68° East 353 406 11,800 -900 Descending Houston Center
05:55PM 29.6067 -96.0469 60° Northeast 351 404 11,000 -900 Descending Houston Center
05:56PM 29.6108 -96.0364 66° East 342 394 10,900 -900 Descending Houston Center
05:56PM 29.6514 -95.9578 59° Northeast 356 410 10,200 -900 Descending Houston Center
05:57PM 29.6656 -95.9278 61° Northeast 353 406 10,000 -240 Descending Houston Center
05:57PM 29.6994 -95.8608 60° Northeast 349 402 10,000  Level Houston Center
05:58PM 29.7142 -95.8333 58° Northeast 347 399 10,000 -540 Level Houston Center
05:58PM 29.7422 -95.7742 61° Northeast 293 337 9,500 -900 Descending Houston Center
05:59PM 29.7553 -95.7503 58° Northeast 305 351 9,100 -1,080 Descending Houston Center
05:59PM 29.7817 -95.6975 60° Northeast 300 345 8,500 -1,020 Descending Houston Center
06:00PM 29.7967 -95.6669 60° Northeast 297 342 8,100 -1,140 Descending Houston Center
06:00PM 29.8225 -95.6133 61° Northeast 290 334 7,400 -1,080 Descending Houston Center
06:01PM 29.8361 -95.5875 59° Northeast 287 330 7,000 -1,020 Descending Houston Center
06:01PM 29.8653 -95.5286 60° Northeast 271 312 6,300 -1,020 Descending Houston Center
06:02PM 29.8822 -95.4961 59° Northeast 274 315 6,000 -360 Descending Houston Center
06:02PM 29.8942 -95.4553 71° East 287 330 6,000  Level Houston Center
06:03PM 29.8958 -95.4072 88° East 286 329 6,000  Level Houston Center
06:03PM 29.8967 -95.3658 89° East 282 325 6,000  Level Houston Center
06:04PM 29.8967 -95.3181 90° East 281 323 6,000  Level Houston Center
06:04PM 29.8956 -95.2625 91° East 282 325 6,000  Level Houston Center
06:05PM 29.8967 -95.2294 88° East 276 318 6,000 -360 Level Houston Center
06:05PM 29.8972 -95.1900 89° East 240 276 5,700 -780 Descending Houston Center
06:06PM 29.9000 -95.1536 85° East 242 278 5,200 -1,020 Descending Houston Center
06:06PM 29.9278 -95.1356 29° Northeast 236 272 4,700 -1,020 Descending Houston Center
06:07PM 29.9586 -95.1333 North 231 266 4,200 -780 Descending Houston Center
06:07PM 29.9933 -95.1394 351° North 192 221 3,900 -660 Descending Houston Center